sensor_id;sensor_type;location;lat;lon;timestamp;P1;durP1;ratioP1;P2;durP2;ratioP2
57327;SDS011;43162;51.040;18.244;2022-07-29T00:00:50;6.10;;;1.60;;
57327;SDS011;43162;51.040;18.244;2022-07-29T00:03:34;5.70;;;1.70;;
57327;SDS011;43162;51.040;18.244;2022-07-29T00:06:18;5.00;;;1.50;;
57327;SDS011;43162;51.040;18.244;2022-07-29T00:09:05;8.70;;;1.70;;
57327;SDS011;43162;51.040;18.244;2022-07-29T00:11:49;8.20;;;1.90;;
57327;SDS011;43162;51.040;18.244;2022-07-29T00:14:33;8.80;;;1.70;;
57327;SDS011;43162;51.040;18.244;2022-07-29T00:17:17;9.10;;;1.70;;
57327;SDS011;43162;51.040;18.244;2022-07-29T00:20:01;7.10;;;1.80;;
57327;SDS011;43162;51.040;18.244;2022-07-29T00:22:45;7.60;;;1.60;;
57327;SDS011;43162;51.040;18.244;2022-07-29T00:25:30;6.40;;;1.80;;
57327;SDS011;43162;51.040;18.244;2022-07-29T00:28:14;6.60;;;1.90;;
57327;SDS011;43162;51.040;18.244;2022-07-29T00:30:58;5.90;;;1.70;;
57327;SDS011;43162;51.040;18.244;2022-07-29T00:33:42;6.90;;;1.70;;
57327;SDS011;43162;51.040;18.244;2022-07-29T00:36:26;6.10;;;1.70;;
57327;SDS011;43162;51.040;18.244;2022-07-29T00:39:11;7.50;;;1.70;;
57327;SDS011;43162;51.040;18.244;2022-07-29T00:41:55;6.80;;;1.60;;
57327;SDS011;43162;51.040;18.244;2022-07-29T00:44:40;6.10;;;1.60;;
57327;SDS011;43162;51.040;18.244;2022-07-29T00:47:24;5.50;;;1.70;;
57327;SDS011;43162;51.040;18.244;2022-07-29T00:50:09;6.20;;;1.70;;
57327;SDS011;43162;51.040;18.244;2022-07-29T00:52:54;8.70;;;1.50;;
57327;SDS011;43162;51.040;18.244;2022-07-29T00:55:38;6.40;;;1.50;;
57327;SDS011;43162;51.040;18.244;2022-07-29T00:58:22;6.10;;;1.50;;
57327;SDS011;43162;51.040;18.244;2022-07-29T01:01:07;8.10;;;2.10;;
57327;SDS011;43162;51.040;18.244;2022-07-29T01:03:51;5.80;;;1.80;;
57327;SDS011;43162;51.040;18.244;2022-07-29T01:06:35;7.10;;;1.90;;
57327;SDS011;43162;51.040;18.244;2022-07-29T01:09:19;5.00;;;1.70;;
57327;SDS011;43162;51.040;18.244;2022-07-29T01:12:03;5.80;;;2.00;;
57327;SDS011;43162;51.040;18.244;2022-07-29T01:14:48;6.30;;;1.70;;
57327;SDS011;43162;51.040;18.244;2022-07-29T01:20:56;5.30;;;1.60;;
57327;SDS011;43162;51.040;18.244;2022-07-29T01:23:59;6.80;;;1.60;;
57327;SDS011;43162;51.040;18.244;2022-07-29T01:26:46;5.70;;;1.90;;
57327;SDS011;43162;51.040;18.244;2022-07-29T01:29:35;5.70;;;2.00;;
57327;SDS011;43162;51.040;18.244;2022-07-29T01:32:22;4.90;;;1.50;;
57327;SDS011;43162;51.040;18.244;2022-07-29T01:35:11;6.00;;;1.70;;
57327;SDS011;43162;51.040;18.244;2022-07-29T01:41:05;8.40;;;1.90;;
57327;SDS011;43162;51.040;18.244;2022-07-29T01:43:55;7.20;;;1.90;;
57327;SDS011;43162;51.040;18.244;2022-07-29T01:46:42;7.10;;;1.90;;
57327;SDS011;43162;51.040;18.244;2022-07-29T01:49:28;6.70;;;1.80;;
57327;SDS011;43162;51.040;18.244;2022-07-29T01:52:16;7.80;;;1.90;;
57327;SDS011;43162;51.040;18.244;2022-07-29T01:55:04;5.70;;;1.80;;
57327;SDS011;43162;51.040;18.244;2022-07-29T01:57:50;7.90;;;2.10;;
57327;SDS011;43162;51.040;18.244;2022-07-29T02:00:34;7.00;;;1.60;;
57327;SDS011;43162;51.040;18.244;2022-07-29T02:03:18;8.00;;;1.70;;
57327;SDS011;43162;51.040;18.244;2022-07-29T02:06:02;6.80;;;2.20;;
57327;SDS011;43162;51.040;18.244;2022-07-29T02:08:47;8.10;;;1.80;;
57327;SDS011;43162;51.040;18.244;2022-07-29T02:11:33;6.30;;;1.90;;
57327;SDS011;43162;51.040;18.244;2022-07-29T02:14:21;8.80;;;2.00;;
57327;SDS011;43162;51.040;18.244;2022-07-29T02:17:06;6.30;;;2.10;;
57327;SDS011;43162;51.040;18.244;2022-07-29T02:19:51;8.30;;;2.10;;
57327;SDS011;43162;51.040;18.244;2022-07-29T02:22:37;7.20;;;1.80;;
57327;SDS011;43162;51.040;18.244;2022-07-29T02:25:21;8.10;;;2.00;;
57327;SDS011;43162;51.040;18.244;2022-07-29T02:28:06;6.80;;;2.00;;
57327;SDS011;43162;51.040;18.244;2022-07-29T02:30:52;7.60;;;1.80;;
57327;SDS011;43162;51.040;18.244;2022-07-29T02:33:37;6.70;;;2.00;;
57327;SDS011;43162;51.040;18.244;2022-07-29T02:36:22;11.50;;;2.00;;
57327;SDS011;43162;51.040;18.244;2022-07-29T02:39:06;5.30;;;1.80;;
57327;SDS011;43162;51.040;18.244;2022-07-29T02:41:52;5.00;;;1.90;;
57327;SDS011;43162;51.040;18.244;2022-07-29T02:44:38;6.20;;;1.80;;
57327;SDS011;43162;51.040;18.244;2022-07-29T02:47:41;6.30;;;1.90;;
57327;SDS011;43162;51.040;18.244;2022-07-29T02:50:31;9.20;;;2.50;;
57327;SDS011;43162;51.040;18.244;2022-07-29T02:53:20;7.70;;;2.40;;
57327;SDS011;43162;51.040;18.244;2022-07-29T02:56:07;8.70;;;2.40;;
57327;SDS011;43162;51.040;18.244;2022-07-29T02:58:55;9.50;;;2.40;;
57327;SDS011;43162;51.040;18.244;2022-07-29T03:01:41;7.90;;;2.30;;
57327;SDS011;43162;51.040;18.244;2022-07-29T03:04:27;10.70;;;2.40;;
57327;SDS011;43162;51.040;18.244;2022-07-29T03:07:14;6.80;;;2.20;;
57327;SDS011;43162;51.040;18.244;2022-07-29T03:10:00;10.20;;;2.50;;
57327;SDS011;43162;51.040;18.244;2022-07-29T03:12:44;9.60;;;2.00;;
57327;SDS011;43162;51.040;18.244;2022-07-29T03:15:30;6.80;;;1.90;;
57327;SDS011;43162;51.040;18.244;2022-07-29T03:18:14;8.70;;;1.60;;
57327;SDS011;43162;51.040;18.244;2022-07-29T03:20:59;5.30;;;1.70;;
57327;SDS011;43162;51.040;18.244;2022-07-29T03:23:43;6.50;;;1.80;;
57327;SDS011;43162;51.040;18.244;2022-07-29T03:26:28;4.90;;;1.50;;
57327;SDS011;43162;51.040;18.244;2022-07-29T03:29:12;7.30;;;1.70;;
57327;SDS011;43162;51.040;18.244;2022-07-29T03:31:56;6.60;;;1.60;;
57327;SDS011;43162;51.040;18.244;2022-07-29T03:34:41;5.90;;;1.70;;
57327;SDS011;43162;51.040;18.244;2022-07-29T03:37:25;6.10;;;1.70;;
57327;SDS011;43162;51.040;18.244;2022-07-29T03:40:09;7.30;;;1.60;;
57327;SDS011;43162;51.040;18.244;2022-07-29T03:42:55;6.10;;;1.70;;
57327;SDS011;43162;51.040;18.244;2022-07-29T03:45:42;5.40;;;1.70;;
57327;SDS011;43162;51.040;18.244;2022-07-29T03:48:26;6.00;;;1.50;;
57327;SDS011;43162;51.040;18.244;2022-07-29T03:51:12;6.60;;;1.70;;
57327;SDS011;43162;51.040;18.244;2022-07-29T03:53:57;7.60;;;1.60;;
57327;SDS011;43162;51.040;18.244;2022-07-29T03:56:42;5.20;;;1.60;;
57327;SDS011;43162;51.040;18.244;2022-07-29T03:59:30;8.40;;;1.80;;
57327;SDS011;43162;51.040;18.244;2022-07-29T04:02:16;5.30;;;1.70;;
57327;SDS011;43162;51.040;18.244;2022-07-29T04:05:00;6.30;;;1.70;;
57327;SDS011;43162;51.040;18.244;2022-07-29T04:07:48;6.50;;;1.50;;
57327;SDS011;43162;51.040;18.244;2022-07-29T04:10:32;8.40;;;1.70;;
57327;SDS011;43162;51.040;18.244;2022-07-29T04:13:16;5.60;;;1.40;;
57327;SDS011;43162;51.040;18.244;2022-07-29T04:16:00;5.80;;;1.40;;
57327;SDS011;43162;51.040;18.244;2022-07-29T04:18:44;8.90;;;1.80;;
57327;SDS011;43162;51.040;18.244;2022-07-29T04:21:28;10.10;;;1.60;;
57327;SDS011;43162;51.040;18.244;2022-07-29T04:24:12;5.30;;;1.60;;
57327;SDS011;43162;51.040;18.244;2022-07-29T04:26:56;6.30;;;1.40;;
57327;SDS011;43162;51.040;18.244;2022-07-29T04:29:41;6.70;;;1.60;;
57327;SDS011;43162;51.040;18.244;2022-07-29T04:32:25;8.70;;;1.50;;
57327;SDS011;43162;51.040;18.244;2022-07-29T04:35:09;9.30;;;1.70;;
57327;SDS011;43162;51.040;18.244;2022-07-29T04:37:53;9.60;;;1.60;;
57327;SDS011;43162;51.040;18.244;2022-07-29T04:40:37;6.50;;;1.50;;
57327;SDS011;43162;51.040;18.244;2022-07-29T04:43:22;7.20;;;1.60;;
57327;SDS011;43162;51.040;18.244;2022-07-29T04:46:06;6.80;;;1.50;;
57327;SDS011;43162;51.040;18.244;2022-07-29T04:48:50;8.60;;;1.80;;
57327;SDS011;43162;51.040;18.244;2022-07-29T04:51:34;7.00;;;1.50;;
57327;SDS011;43162;51.040;18.244;2022-07-29T04:54:18;4.40;;;1.30;;
57327;SDS011;43162;51.040;18.244;2022-07-29T04:57:03;11.50;;;1.20;;
57327;SDS011;43162;51.040;18.244;2022-07-29T04:59:47;6.90;;;1.30;;
57327;SDS011;43162;51.040;18.244;2022-07-29T05:02:31;7.90;;;1.20;;
57327;SDS011;43162;51.040;18.244;2022-07-29T05:05:15;6.90;;;1.30;;
57327;SDS011;43162;51.040;18.244;2022-07-29T05:07:59;6.60;;;1.20;;
57327;SDS011;43162;51.040;18.244;2022-07-29T05:10:43;5.40;;;1.10;;
57327;SDS011;43162;51.040;18.244;2022-07-29T05:13:27;3.90;;;1.10;;
57327;SDS011;43162;51.040;18.244;2022-07-29T05:16:12;6.80;;;1.20;;
57327;SDS011;43162;51.040;18.244;2022-07-29T05:18:56;6.10;;;1.10;;
57327;SDS011;43162;51.040;18.244;2022-07-29T05:21:40;7.60;;;1.20;;
57327;SDS011;43162;51.040;18.244;2022-07-29T05:24:24;4.00;;;1.00;;
57327;SDS011;43162;51.040;18.244;2022-07-29T05:27:08;8.80;;;1.00;;
57327;SDS011;43162;51.040;18.244;2022-07-29T05:29:53;10.80;;;1.40;;
57327;SDS011;43162;51.040;18.244;2022-07-29T05:32:37;6.60;;;1.10;;
57327;SDS011;43162;51.040;18.244;2022-07-29T05:35:21;7.60;;;0.90;;
57327;SDS011;43162;51.040;18.244;2022-07-29T05:38:05;9.60;;;1.20;;
57327;SDS011;43162;51.040;18.244;2022-07-29T05:40:49;5.80;;;1.10;;
57327;SDS011;43162;51.040;18.244;2022-07-29T05:43:33;7.40;;;1.20;;
57327;SDS011;43162;51.040;18.244;2022-07-29T05:46:17;7.70;;;1.10;;
57327;SDS011;43162;51.040;18.244;2022-07-29T05:49:02;10.70;;;1.10;;
57327;SDS011;43162;51.040;18.244;2022-07-29T05:51:46;7.10;;;1.10;;
57327;SDS011;43162;51.040;18.244;2022-07-29T05:54:33;10.40;;;1.30;;
57327;SDS011;43162;51.040;18.244;2022-07-29T05:57:21;7.90;;;1.00;;
57327;SDS011;43162;51.040;18.244;2022-07-29T06:00:06;9.10;;;1.00;;
57327;SDS011;43162;51.040;18.244;2022-07-29T06:02:50;7.80;;;0.90;;
57327;SDS011;43162;51.040;18.244;2022-07-29T06:05:34;9.90;;;1.20;;
57327;SDS011;43162;51.040;18.244;2022-07-29T06:08:18;6.80;;;1.10;;
57327;SDS011;43162;51.040;18.244;2022-07-29T06:11:03;5.70;;;1.10;;
57327;SDS011;43162;51.040;18.244;2022-07-29T06:13:47;4.50;;;0.80;;
57327;SDS011;43162;51.040;18.244;2022-07-29T06:16:31;5.50;;;0.80;;
57327;SDS011;43162;51.040;18.244;2022-07-29T06:19:15;7.30;;;0.90;;
57327;SDS011;43162;51.040;18.244;2022-07-29T06:21:59;7.30;;;0.90;;
57327;SDS011;43162;51.040;18.244;2022-07-29T06:24:44;7.20;;;0.80;;
57327;SDS011;43162;51.040;18.244;2022-07-29T06:27:28;12.50;;;1.30;;
57327;SDS011;43162;51.040;18.244;2022-07-29T06:30:13;6.20;;;0.80;;
57327;SDS011;43162;51.040;18.244;2022-07-29T06:32:57;7.00;;;1.00;;
57327;SDS011;43162;51.040;18.244;2022-07-29T06:35:41;5.50;;;0.80;;
57327;SDS011;43162;51.040;18.244;2022-07-29T06:38:26;7.40;;;0.90;;
57327;SDS011;43162;51.040;18.244;2022-07-29T06:41:10;6.60;;;0.80;;
57327;SDS011;43162;51.040;18.244;2022-07-29T06:43:56;5.40;;;0.70;;
57327;SDS011;43162;51.040;18.244;2022-07-29T06:46:40;5.80;;;0.80;;
57327;SDS011;43162;51.040;18.244;2022-07-29T06:49:25;7.40;;;0.90;;
57327;SDS011;43162;51.040;18.244;2022-07-29T06:52:10;7.60;;;0.80;;
57327;SDS011;43162;51.040;18.244;2022-07-29T06:54:54;9.00;;;0.80;;
57327;SDS011;43162;51.040;18.244;2022-07-29T06:57:38;8.20;;;0.80;;
57327;SDS011;43162;51.040;18.244;2022-07-29T07:00:23;4.60;;;0.70;;
57327;SDS011;43162;51.040;18.244;2022-07-29T07:03:07;5.30;;;0.70;;
57327;SDS011;43162;51.040;18.244;2022-07-29T07:05:52;6.10;;;0.80;;
57327;SDS011;43162;51.040;18.244;2022-07-29T07:08:37;5.40;;;0.70;;
57327;SDS011;43162;51.040;18.244;2022-07-29T07:11:21;3.70;;;0.80;;
57327;SDS011;43162;51.040;18.244;2022-07-29T07:14:05;3.70;;;0.60;;
57327;SDS011;43162;51.040;18.244;2022-07-29T07:16:50;6.30;;;0.80;;
57327;SDS011;43162;51.040;18.244;2022-07-29T07:19:34;4.90;;;0.80;;
57327;SDS011;43162;51.040;18.244;2022-07-29T07:22:18;4.20;;;0.70;;
57327;SDS011;43162;51.040;18.244;2022-07-29T07:25:03;11.00;;;1.00;;
57327;SDS011;43162;51.040;18.244;2022-07-29T07:27:47;3.70;;;0.70;;
57327;SDS011;43162;51.040;18.244;2022-07-29T07:30:31;3.30;;;0.70;;
57327;SDS011;43162;51.040;18.244;2022-07-29T07:33:15;4.50;;;0.70;;
57327;SDS011;43162;51.040;18.244;2022-07-29T07:35:59;7.90;;;0.80;;
57327;SDS011;43162;51.040;18.244;2022-07-29T07:38:43;3.80;;;0.70;;
57327;SDS011;43162;51.040;18.244;2022-07-29T07:41:28;6.50;;;0.90;;
57327;SDS011;43162;51.040;18.244;2022-07-29T07:44:13;4.50;;;0.70;;
57327;SDS011;43162;51.040;18.244;2022-07-29T07:46:57;3.70;;;0.70;;
57327;SDS011;43162;51.040;18.244;2022-07-29T07:49:42;6.80;;;0.90;;
57327;SDS011;43162;51.040;18.244;2022-07-29T07:52:26;5.50;;;1.00;;
57327;SDS011;43162;51.040;18.244;2022-07-29T07:55:10;10.00;;;0.80;;
57327;SDS011;43162;51.040;18.244;2022-07-29T07:57:54;10.90;;;1.00;;
57327;SDS011;43162;51.040;18.244;2022-07-29T08:00:39;4.00;;;0.80;;
57327;SDS011;43162;51.040;18.244;2022-07-29T08:03:23;10.70;;;1.00;;
57327;SDS011;43162;51.040;18.244;2022-07-29T08:06:07;10.70;;;1.00;;
57327;SDS011;43162;51.040;18.244;2022-07-29T08:08:52;4.70;;;0.80;;
57327;SDS011;43162;51.040;18.244;2022-07-29T08:11:37;6.80;;;1.00;;
57327;SDS011;43162;51.040;18.244;2022-07-29T08:14:22;5.00;;;0.90;;
57327;SDS011;43162;51.040;18.244;2022-07-29T08:17:06;4.60;;;0.70;;
57327;SDS011;43162;51.040;18.244;2022-07-29T08:19:50;13.40;;;1.00;;
57327;SDS011;43162;51.040;18.244;2022-07-29T08:22:34;7.20;;;0.80;;
57327;SDS011;43162;51.040;18.244;2022-07-29T08:25:19;8.20;;;1.00;;
57327;SDS011;43162;51.040;18.244;2022-07-29T08:28:04;5.90;;;0.70;;
57327;SDS011;43162;51.040;18.244;2022-07-29T08:30:48;7.70;;;0.80;;
57327;SDS011;43162;51.040;18.244;2022-07-29T08:33:32;8.80;;;0.90;;
57327;SDS011;43162;51.040;18.244;2022-07-29T08:36:17;5.50;;;0.80;;
57327;SDS011;43162;51.040;18.244;2022-07-29T08:39:02;9.60;;;0.90;;
57327;SDS011;43162;51.040;18.244;2022-07-29T08:41:47;6.40;;;0.80;;
57327;SDS011;43162;51.040;18.244;2022-07-29T08:44:35;7.20;;;0.90;;
57327;SDS011;43162;51.040;18.244;2022-07-29T08:47:19;10.70;;;0.90;;
57327;SDS011;43162;51.040;18.244;2022-07-29T08:50:03;6.00;;;0.80;;
57327;SDS011;43162;51.040;18.244;2022-07-29T08:52:48;6.10;;;0.80;;
57327;SDS011;43162;51.040;18.244;2022-07-29T08:55:32;6.50;;;0.80;;
57327;SDS011;43162;51.040;18.244;2022-07-29T08:58:17;3.40;;;0.70;;
57327;SDS011;43162;51.040;18.244;2022-07-29T09:01:02;2.60;;;0.70;;
57327;SDS011;43162;51.040;18.244;2022-07-29T09:03:46;4.40;;;0.80;;
57327;SDS011;43162;51.040;18.244;2022-07-29T09:06:32;6.40;;;0.80;;
57327;SDS011;43162;51.040;18.244;2022-07-29T09:09:18;4.90;;;0.80;;
57327;SDS011;43162;51.040;18.244;2022-07-29T09:12:02;11.30;;;0.90;;
57327;SDS011;43162;51.040;18.244;2022-07-29T09:14:48;11.60;;;1.10;;
57327;SDS011;43162;51.040;18.244;2022-07-29T09:17:42;5.40;;;0.90;;
57327;SDS011;43162;51.040;18.244;2022-07-29T09:20:26;3.60;;;0.80;;
57327;SDS011;43162;51.040;18.244;2022-07-29T09:23:30;9.70;;;0.90;;
57327;SDS011;43162;51.040;18.244;2022-07-29T09:26:14;7.00;;;0.80;;
57327;SDS011;43162;51.040;18.244;2022-07-29T09:28:59;4.70;;;0.90;;
57327;SDS011;43162;51.040;18.244;2022-07-29T09:31:44;4.90;;;0.80;;
57327;SDS011;43162;51.040;18.244;2022-07-29T09:34:29;4.70;;;0.80;;
57327;SDS011;43162;51.040;18.244;2022-07-29T09:37:28;4.10;;;0.80;;
57327;SDS011;43162;51.040;18.244;2022-07-29T09:40:13;6.20;;;0.80;;
57327;SDS011;43162;51.040;18.244;2022-07-29T09:42:59;6.30;;;0.70;;
57327;SDS011;43162;51.040;18.244;2022-07-29T09:45:53;5.30;;;0.90;;
57327;SDS011;43162;51.040;18.244;2022-07-29T09:48:37;4.30;;;0.90;;
57327;SDS011;43162;51.040;18.244;2022-07-29T09:51:21;3.50;;;0.60;;
57327;SDS011;43162;51.040;18.244;2022-07-29T09:54:24;36.20;;;1.90;;
57327;SDS011;43162;51.040;18.244;2022-07-29T10:00:08;5.40;;;0.80;;
57327;SDS011;43162;51.040;18.244;2022-07-29T10:02:52;7.50;;;1.00;;
57327;SDS011;43162;51.040;18.244;2022-07-29T10:05:45;6.20;;;0.80;;
57327;SDS011;43162;51.040;18.244;2022-07-29T10:08:29;5.50;;;0.80;;
57327;SDS011;43162;51.040;18.244;2022-07-29T10:11:15;4.70;;;0.70;;
57327;SDS011;43162;51.040;18.244;2022-07-29T10:14:01;7.80;;;0.90;;
57327;SDS011;43162;51.040;18.244;2022-07-29T10:16:45;4.50;;;0.80;;
57327;SDS011;43162;51.040;18.244;2022-07-29T10:19:29;5.10;;;0.90;;
57327;SDS011;43162;51.040;18.244;2022-07-29T10:22:16;5.30;;;0.80;;
57327;SDS011;43162;51.040;18.244;2022-07-29T10:25:01;5.30;;;0.80;;
57327;SDS011;43162;51.040;18.244;2022-07-29T10:27:46;6.10;;;0.90;;
57327;SDS011;43162;51.040;18.244;2022-07-29T10:30:30;3.80;;;0.80;;
57327;SDS011;43162;51.040;18.244;2022-07-29T10:36:13;6.00;;;0.90;;
57327;SDS011;43162;51.040;18.244;2022-07-29T10:39:03;4.30;;;0.90;;
57327;SDS011;43162;51.040;18.244;2022-07-29T10:42:04;3.00;;;0.80;;
57327;SDS011;43162;51.040;18.244;2022-07-29T10:44:50;6.00;;;0.80;;
57327;SDS011;43162;51.040;18.244;2022-07-29T10:47:35;4.90;;;0.90;;
57327;SDS011;43162;51.040;18.244;2022-07-29T10:50:19;7.10;;;1.00;;
57327;SDS011;43162;51.040;18.244;2022-07-29T10:53:03;6.10;;;1.00;;
57327;SDS011;43162;51.040;18.244;2022-07-29T10:55:48;8.20;;;1.00;;
57327;SDS011;43162;51.040;18.244;2022-07-29T10:58:34;4.00;;;0.80;;
57327;SDS011;43162;51.040;18.244;2022-07-29T11:01:28;2.90;;;0.90;;
57327;SDS011;43162;51.040;18.244;2022-07-29T11:04:13;5.50;;;0.90;;
57327;SDS011;43162;51.040;18.244;2022-07-29T11:09:44;4.50;;;0.90;;
57327;SDS011;43162;51.040;18.244;2022-07-29T11:12:49;4.40;;;0.90;;
57327;SDS011;43162;51.040;18.244;2022-07-29T11:15:54;4.70;;;0.80;;
57327;SDS011;43162;51.040;18.244;2022-07-29T11:21:42;7.60;;;0.90;;
57327;SDS011;43162;51.040;18.244;2022-07-29T11:24:27;5.60;;;0.90;;
57327;SDS011;43162;51.040;18.244;2022-07-29T11:27:16;7.40;;;0.80;;
57327;SDS011;43162;51.040;18.244;2022-07-29T11:30:00;6.10;;;1.00;;
57327;SDS011;43162;51.040;18.244;2022-07-29T11:32:50;4.80;;;0.90;;
57327;SDS011;43162;51.040;18.244;2022-07-29T11:35:34;5.90;;;0.90;;
57327;SDS011;43162;51.040;18.244;2022-07-29T11:44:00;3.60;;;0.80;;
57327;SDS011;43162;51.040;18.244;2022-07-29T11:46:44;4.20;;;1.00;;
57327;SDS011;43162;51.040;18.244;2022-07-29T11:49:30;5.60;;;0.90;;
57327;SDS011;43162;51.040;18.244;2022-07-29T11:52:15;3.20;;;0.80;;
57327;SDS011;43162;51.040;18.244;2022-07-29T11:55:00;4.80;;;0.90;;
57327;SDS011;43162;51.040;18.244;2022-07-29T11:57:50;6.10;;;1.10;;
57327;SDS011;43162;51.040;18.244;2022-07-29T12:00:37;6.80;;;1.00;;
57327;SDS011;43162;51.040;18.244;2022-07-29T12:03:26;6.60;;;1.10;;
57327;SDS011;43162;51.040;18.244;2022-07-29T12:06:13;4.30;;;1.00;;
57327;SDS011;43162;51.040;18.244;2022-07-29T12:08:57;8.90;;;1.00;;
57327;SDS011;43162;51.040;18.244;2022-07-29T12:11:42;25.50;;;1.50;;
57327;SDS011;43162;51.040;18.244;2022-07-29T12:14:26;4.80;;;0.90;;
57327;SDS011;43162;51.040;18.244;2022-07-29T12:17:24;5.40;;;1.10;;
57327;SDS011;43162;51.040;18.244;2022-07-29T12:20:09;23.00;;;1.80;;
57327;SDS011;43162;51.040;18.244;2022-07-29T12:22:54;7.40;;;1.10;;
57327;SDS011;43162;51.040;18.244;2022-07-29T12:25:39;6.00;;;1.10;;
57327;SDS011;43162;51.040;18.244;2022-07-29T12:28:24;5.70;;;1.00;;
57327;SDS011;43162;51.040;18.244;2022-07-29T12:31:14;4.30;;;0.90;;
57327;SDS011;43162;51.040;18.244;2022-07-29T12:33:59;14.10;;;1.20;;
57327;SDS011;43162;51.040;18.244;2022-07-29T12:36:43;11.10;;;1.20;;
57327;SDS011;43162;51.040;18.244;2022-07-29T12:39:27;8.10;;;1.00;;
57327;SDS011;43162;51.040;18.244;2022-07-29T12:42:13;5.10;;;1.10;;
57327;SDS011;43162;51.040;18.244;2022-07-29T12:44:57;4.50;;;1.00;;
57327;SDS011;43162;51.040;18.244;2022-07-29T12:47:51;5.70;;;1.00;;
57327;SDS011;43162;51.040;18.244;2022-07-29T12:50:37;4.90;;;1.00;;
57327;SDS011;43162;51.040;18.244;2022-07-29T12:53:35;6.50;;;1.30;;
57327;SDS011;43162;51.040;18.244;2022-07-29T12:56:19;5.80;;;1.10;;
57327;SDS011;43162;51.040;18.244;2022-07-29T13:02:00;6.40;;;1.20;;
57327;SDS011;43162;51.040;18.244;2022-07-29T13:04:44;7.50;;;1.10;;
57327;SDS011;43162;51.040;18.244;2022-07-29T13:07:38;6.00;;;1.30;;
57327;SDS011;43162;51.040;18.244;2022-07-29T13:10:23;5.80;;;1.10;;
57327;SDS011;43162;51.040;18.244;2022-07-29T13:13:11;5.60;;;1.20;;
57327;SDS011;43162;51.040;18.244;2022-07-29T13:16:06;7.40;;;1.20;;
57327;SDS011;43162;51.040;18.244;2022-07-29T13:21:48;4.50;;;1.00;;
57327;SDS011;43162;51.040;18.244;2022-07-29T13:24:33;8.70;;;1.20;;
57327;SDS011;43162;51.040;18.244;2022-07-29T13:27:22;8.00;;;1.40;;
57327;SDS011;43162;51.040;18.244;2022-07-29T13:30:07;7.90;;;1.30;;
57327;SDS011;43162;51.040;18.244;2022-07-29T13:32:55;5.40;;;1.10;;
57327;SDS011;43162;51.040;18.244;2022-07-29T13:35:40;14.30;;;1.50;;
57327;SDS011;43162;51.040;18.244;2022-07-29T13:38:24;8.20;;;1.40;;
57327;SDS011;43162;51.040;18.244;2022-07-29T13:41:09;8.40;;;1.40;;
57327;SDS011;43162;51.040;18.244;2022-07-29T13:43:53;6.60;;;1.30;;
57327;SDS011;43162;51.040;18.244;2022-07-29T13:46:37;4.20;;;1.20;;
57327;SDS011;43162;51.040;18.244;2022-07-29T13:49:21;6.90;;;1.30;;
57327;SDS011;43162;51.040;18.244;2022-07-29T13:52:06;8.30;;;1.40;;
57327;SDS011;43162;51.040;18.244;2022-07-29T13:54:51;9.70;;;1.70;;
57327;SDS011;43162;51.040;18.244;2022-07-29T13:57:35;7.90;;;1.50;;
57327;SDS011;43162;51.040;18.244;2022-07-29T14:00:19;5.90;;;1.40;;
57327;SDS011;43162;51.040;18.244;2022-07-29T14:03:04;6.20;;;1.20;;
57327;SDS011;43162;51.040;18.244;2022-07-29T14:05:50;8.00;;;1.30;;
57327;SDS011;43162;51.040;18.244;2022-07-29T14:08:34;15.20;;;1.70;;
57327;SDS011;43162;51.040;18.244;2022-07-29T14:11:18;7.10;;;1.40;;
57327;SDS011;43162;51.040;18.244;2022-07-29T14:14:02;16.80;;;1.80;;
57327;SDS011;43162;51.040;18.244;2022-07-29T14:16:46;5.20;;;1.30;;
57327;SDS011;43162;51.040;18.244;2022-07-29T14:19:30;7.90;;;1.20;;
57327;SDS011;43162;51.040;18.244;2022-07-29T14:22:15;12.10;;;1.40;;
57327;SDS011;43162;51.040;18.244;2022-07-29T14:25:02;6.80;;;1.40;;
57327;SDS011;43162;51.040;18.244;2022-07-29T14:27:46;5.50;;;1.40;;
57327;SDS011;43162;51.040;18.244;2022-07-29T14:30:30;6.50;;;1.50;;
57327;SDS011;43162;51.040;18.244;2022-07-29T14:33:14;6.10;;;1.20;;
57327;SDS011;43162;51.040;18.244;2022-07-29T14:35:58;10.00;;;1.40;;
57327;SDS011;43162;51.040;18.244;2022-07-29T14:38:43;9.00;;;1.30;;
57327;SDS011;43162;51.040;18.244;2022-07-29T14:41:27;16.70;;;2.80;;
57327;SDS011;43162;51.040;18.244;2022-07-29T14:44:11;8.00;;;1.60;;
57327;SDS011;43162;51.040;18.244;2022-07-29T14:46:56;9.30;;;1.20;;
57327;SDS011;43162;51.040;18.244;2022-07-29T14:49:40;28.50;;;2.10;;
57327;SDS011;43162;51.040;18.244;2022-07-29T14:52:24;10.40;;;1.50;;
57327;SDS011;43162;51.040;18.244;2022-07-29T14:55:08;23.20;;;2.40;;
57327;SDS011;43162;51.040;18.244;2022-07-29T14:57:52;9.30;;;1.50;;
57327;SDS011;43162;51.040;18.244;2022-07-29T15:00:37;5.90;;;1.20;;
57327;SDS011;43162;51.040;18.244;2022-07-29T15:03:21;6.50;;;1.30;;
57327;SDS011;43162;51.040;18.244;2022-07-29T15:06:06;15.30;;;1.70;;
57327;SDS011;43162;51.040;18.244;2022-07-29T15:08:50;6.90;;;1.40;;
57327;SDS011;43162;51.040;18.244;2022-07-29T15:11:34;6.60;;;1.30;;
57327;SDS011;43162;51.040;18.244;2022-07-29T15:14:18;6.00;;;1.20;;
57327;SDS011;43162;51.040;18.244;2022-07-29T15:17:02;6.60;;;1.10;;
57327;SDS011;43162;51.040;18.244;2022-07-29T15:19:46;10.90;;;1.30;;
57327;SDS011;43162;51.040;18.244;2022-07-29T15:22:31;49.10;;;3.80;;
57327;SDS011;43162;51.040;18.244;2022-07-29T15:25:14;79.80;;;4.50;;
57327;SDS011;43162;51.040;18.244;2022-07-29T15:27:59;5.30;;;1.20;;
57327;SDS011;43162;51.040;18.244;2022-07-29T15:30:46;9.90;;;1.20;;
57327;SDS011;43162;51.040;18.244;2022-07-29T15:33:30;22.70;;;1.60;;
57327;SDS011;43162;51.040;18.244;2022-07-29T15:36:14;12.50;;;1.40;;
57327;SDS011;43162;51.040;18.244;2022-07-29T15:38:59;13.60;;;1.80;;
57327;SDS011;43162;51.040;18.244;2022-07-29T15:41:43;8.80;;;1.50;;
57327;SDS011;43162;51.040;18.244;2022-07-29T15:44:27;10.10;;;1.30;;
57327;SDS011;43162;51.040;18.244;2022-07-29T15:47:11;7.70;;;1.30;;
57327;SDS011;43162;51.040;18.244;2022-07-29T15:49:55;7.90;;;1.30;;
57327;SDS011;43162;51.040;18.244;2022-07-29T15:52:40;8.20;;;1.50;;
57327;SDS011;43162;51.040;18.244;2022-07-29T15:55:24;7.30;;;1.30;;
57327;SDS011;43162;51.040;18.244;2022-07-29T15:58:08;8.40;;;1.30;;
57327;SDS011;43162;51.040;18.244;2022-07-29T16:00:52;7.50;;;1.40;;
57327;SDS011;43162;51.040;18.244;2022-07-29T16:03:37;5.40;;;1.30;;
57327;SDS011;43162;51.040;18.244;2022-07-29T16:06:22;18.10;;;2.20;;
57327;SDS011;43162;51.040;18.244;2022-07-29T16:09:07;7.30;;;1.60;;
57327;SDS011;43162;51.040;18.244;2022-07-29T16:11:51;10.00;;;1.50;;
57327;SDS011;43162;51.040;18.244;2022-07-29T16:14:37;5.90;;;1.50;;
57327;SDS011;43162;51.040;18.244;2022-07-29T16:17:21;8.20;;;1.50;;
57327;SDS011;43162;51.040;18.244;2022-07-29T16:20:05;39.20;;;3.90;;
57327;SDS011;43162;51.040;18.244;2022-07-29T16:22:49;7.90;;;1.50;;
57327;SDS011;43162;51.040;18.244;2022-07-29T16:25:34;5.00;;;1.60;;
57327;SDS011;43162;51.040;18.244;2022-07-29T16:28:18;6.60;;;1.60;;
57327;SDS011;43162;51.040;18.244;2022-07-29T16:31:02;5.90;;;1.50;;
57327;SDS011;43162;51.040;18.244;2022-07-29T16:33:46;9.40;;;1.70;;
57327;SDS011;43162;51.040;18.244;2022-07-29T16:36:30;7.10;;;1.50;;
57327;SDS011;43162;51.040;18.244;2022-07-29T16:39:15;5.30;;;1.80;;
57327;SDS011;43162;51.040;18.244;2022-07-29T16:41:59;5.10;;;1.50;;
57327;SDS011;43162;51.040;18.244;2022-07-29T16:44:43;5.60;;;1.80;;
57327;SDS011;43162;51.040;18.244;2022-07-29T16:47:27;6.30;;;2.00;;
57327;SDS011;43162;51.040;18.244;2022-07-29T16:50:11;8.40;;;1.90;;